createdAt,value
2016-06-15T00:00:14.315Z,69.38
2016-06-15T00:01:14.303Z,69.48
2016-06-15T00:02:14.103Z,69.48
2016-06-15T00:03:14.513Z,69.48
2016-06-15T00:04:14.516Z,69.38
2016-06-15T00:05:15.003Z,69.48
2016-06-15T00:06:14.506Z,69.48
2016-06-15T00:07:14.306Z,69.29
2016-06-15T00:08:14.512Z,69.48
2016-06-15T00:09:14.499Z,69.09
2016-06-15T00:10:14.363Z,69.09
2016-06-15T00:11:14.302Z,69.38
2016-06-15T00:12:14.306Z,69.29
2016-06-15T00:13:14.105Z,69.09
2016-06-15T00:14:14.515Z,69.19
2016-06-15T00:15:14.112Z,69.29
2016-06-15T00:16:14.303Z,69.19
2016-06-15T00:17:14.306Z,69.29
2016-06-15T00:18:14.121Z,69.38
2016-06-15T00:19:14.499Z,69.19
2016-06-15T00:20:14.471Z,69.38
2016-06-15T00:21:14.303Z,69.38
2016-06-15T00:22:14.321Z,69.29
2016-06-15T00:23:14.106Z,69.38
2016-06-15T00:24:14.295Z,69.38
2016-06-15T00:25:14.502Z,69.29
2016-06-15T00:26:14.301Z,69.38
2016-06-15T00:27:14.493Z,69.19
2016-06-15T00:28:14.510Z,69.29
2016-06-15T00:29:14.311Z,69.09
2016-06-15T00:30:14.501Z,69.19
2016-06-15T00:31:14.505Z,69.48
2016-06-15T00:32:14.102Z,69.48
2016-06-15T00:33:14.495Z,69.29
2016-06-15T00:34:14.498Z,69.29
2016-06-15T00:35:15.079Z,69.29
2016-06-15T00:36:14.099Z,69.48
2016-06-15T00:37:14.101Z,69.29
2016-06-15T00:38:14.291Z,69.45
2016-06-15T00:39:14.499Z,69.45
2016-06-15T00:40:14.298Z,69.15
2016-06-15T00:41:14.285Z,69.25
2016-06-15T00:42:14.492Z,69.35
2016-06-15T00:43:14.292Z,69.25
2016-06-15T00:44:14.295Z,69.38
2016-06-15T00:45:14.095Z,69.29
2016-06-15T00:46:14.082Z,69.19
2016-06-15T00:47:14.304Z,69.19
2016-06-15T00:48:14.494Z,69.15
2016-06-15T00:49:14.294Z,69.25
2016-06-15T00:50:14.500Z,69.25
2016-06-15T00:51:14.286Z,69.35
2016-06-15T00:52:14.288Z,69.45
2016-06-15T00:53:14.495Z,69.25
2016-06-15T00:54:14.295Z,69.25
2016-06-15T00:55:14.079Z,69.15
2016-06-15T00:56:14.488Z,69.25
2016-06-15T00:57:14.085Z,69.29
2016-06-15T00:58:14.322Z,69.25
2016-06-15T00:59:14.548Z,69.25
2016-06-15T01:00:14.401Z,69.19
2016-06-15T01:01:14.627Z,69.15
2016-06-15T01:02:14.260Z,69.06
2016-06-15T01:03:14.469Z,69.35
2016-06-15T01:04:14.297Z,69.45
2016-06-15T01:05:15.532Z,69.35
2016-06-15T01:06:14.517Z,69.25
2016-06-15T01:07:14.314Z,69.25
2016-06-15T01:08:14.526Z,69.35
2016-06-15T01:09:14.738Z,69.06
2016-06-15T01:10:14.745Z,69.06
2016-06-15T01:11:14.348Z,69.25
2016-06-15T01:12:14.746Z,69.54
2016-06-15T01:13:14.564Z,69.45
2016-06-15T01:14:14.615Z,69.35
2016-06-15T01:15:14.557Z,69.35
2016-06-15T01:16:14.359Z,69.15
2016-06-15T01:17:14.551Z,69.35
2016-06-15T01:18:14.556Z,69.25
2016-06-15T01:19:14.559Z,69.25
2016-06-15T01:20:15.141Z,69.25
2016-06-15T01:21:14.614Z,68.96
2016-06-15T01:22:14.352Z,69.06
2016-06-15T01:23:14.574Z,68.96
2016-06-15T01:24:14.546Z,68.96
2016-06-15T01:25:14.549Z,69.25
2016-06-15T01:26:14.552Z,68.96
2016-06-15T01:27:14.556Z,69.25
2016-06-15T01:28:14.558Z,69.25
2016-06-15T01:29:14.358Z,68.96
2016-06-15T01:30:14.548Z,68.87
2016-06-15T01:31:14.755Z,68.96
2016-06-15T01:32:14.554Z,68.96
2016-06-15T01:33:14.745Z,69.25
2016-06-15T01:34:14.560Z,68.96
2016-06-15T01:35:14.564Z,69.25
2016-06-15T01:36:14.347Z,68.96
2016-06-15T01:37:14.554Z,68.87
2016-06-15T01:38:14.354Z,68.96
2016-06-15T01:39:14.748Z,68.87
2016-06-15T01:40:14.345Z,68.87
2016-06-15T01:41:14.754Z,68.77
2016-06-15T01:42:14.351Z,68.87
2016-06-15T01:43:14.541Z,68.77
2016-06-15T01:44:14.748Z,68.68
2016-06-15T01:45:14.547Z,68.77
2016-06-15T01:46:14.753Z,68.77
2016-06-15T01:47:14.537Z,68.77
2016-06-15T01:48:14.745Z,68.77
2016-06-15T01:49:14.748Z,68.68
2016-06-15T01:50:14.547Z,68.68
2016-06-15T01:51:14.332Z,68.87
2016-06-15T01:52:14.741Z,68.77
2016-06-15T01:53:14.541Z,68.77
2016-06-15T01:54:14.747Z,68.87
2016-06-15T01:55:14.547Z,68.87
2016-06-15T01:56:14.331Z,68.58
2016-06-15T01:57:14.740Z,68.58
2016-06-15T01:58:14.743Z,68.77
2016-06-15T01:59:14.747Z,68.58
2016-06-15T02:00:14.735Z,68.58
2016-06-15T02:01:14.535Z,68.77
2016-06-15T02:02:14.741Z,68.68
2016-06-15T02:03:14.525Z,68.58
2016-06-15T02:04:14.747Z,68.58
2016-06-15T02:05:14.656Z,68.58
2016-06-15T02:06:14.737Z,68.87
2016-06-15T02:07:14.334Z,68.87
2016-06-15T02:08:14.524Z,68.96
2016-06-15T02:09:14.730Z,68.87
2016-06-15T02:10:14.733Z,68.87
2016-06-15T02:11:14.378Z,68.87
2016-06-15T02:12:14.584Z,68.58
2016-06-15T02:13:14.525Z,68.77
2016-06-15T02:14:14.387Z,68.77
2016-06-15T02:15:14.328Z,68.87
2016-06-15T02:16:14.518Z,68.96
2016-06-15T02:17:14.318Z,68.58
2016-06-15T02:18:14.571Z,68.68
2016-06-15T02:19:14.527Z,68.58
2016-06-15T02:20:14.405Z,68.58
2016-06-15T02:21:14.564Z,68.77
2016-06-15T02:22:14.318Z,68.96
2016-06-15T02:23:14.320Z,68.58
2016-06-15T02:24:14.512Z,68.96
2016-06-15T02:25:14.529Z,68.58
2016-06-15T02:26:14.720Z,68.74
2016-06-15T02:27:14.520Z,68.77
2016-06-15T02:28:14.524Z,68.74
2016-06-15T02:29:14.354Z,68.68
2016-06-15T02:30:14.358Z,68.93
2016-06-15T02:31:14.516Z,68.58
2016-06-15T02:32:14.520Z,68.74
2016-06-15T02:33:14.523Z,68.54
2016-06-15T02:34:14.729Z,68.93
2016-06-15T02:35:14.514Z,68.77
2016-06-15T02:36:14.360Z,68.96
2016-06-15T02:37:14.504Z,68.87
2016-06-15T02:38:14.507Z,68.87
2016-06-15T02:39:14.713Z,68.77
2016-06-15T02:40:14.513Z,68.84
2016-06-15T02:41:14.501Z,68.93
2016-06-15T02:42:14.503Z,68.93
2016-06-15T02:43:14.507Z,68.77
2016-06-15T02:44:14.713Z,68.93
2016-06-15T02:45:14.498Z,68.74
2016-06-15T02:46:14.704Z,68.54
2016-06-15T02:47:14.301Z,68.93
2016-06-15T02:48:14.507Z,68.77
2016-06-15T02:49:14.494Z,68.93
2016-06-15T02:50:14.717Z,68.84
2016-06-15T02:51:14.719Z,68.84
2016-06-15T02:52:14.504Z,68.93
2016-06-15T02:53:14.709Z,68.74
2016-06-15T02:54:14.494Z,69.02
2016-06-15T02:55:14.513Z,68.93
2016-06-15T02:56:14.282Z,68.74
2016-06-15T02:57:14.143Z,68.93
2016-06-15T02:58:14.288Z,68.84
2016-06-15T02:59:14.493Z,68.93
2016-06-15T03:00:14.497Z,68.93
2016-06-15T03:01:14.297Z,68.74
2016-06-15T03:02:14.285Z,68.54
2016-06-15T03:03:14.287Z,68.54
2016-06-15T03:04:14.493Z,69.02
2016-06-15T03:05:14.684Z,68.74
2016-06-15T03:06:14.500Z,68.64
2016-06-15T03:07:14.691Z,68.64
2016-06-15T03:08:14.303Z,68.74
2016-06-15T03:09:14.494Z,68.74
2016-06-15T03:10:14.699Z,69.02
2016-06-15T03:11:14.281Z,69.22
2016-06-15T03:12:14.674Z,68.84
2016-06-15T03:13:14.490Z,68.74
2016-06-15T03:14:14.680Z,68.74
2016-06-15T03:15:14.480Z,69.22
2016-06-15T03:16:14.686Z,68.74
2016-06-15T03:17:14.472Z,68.93
2016-06-15T03:18:14.271Z,68.74
2016-06-15T03:19:14.477Z,68.84
2016-06-15T03:20:14.683Z,68.93
2016-06-15T03:21:14.686Z,68.93
2016-06-15T03:22:14.283Z,68.74
2016-06-15T03:23:14.677Z,68.84
2016-06-15T03:24:14.679Z,68.93
2016-06-15T03:25:14.464Z,68.93
2016-06-15T03:26:14.467Z,68.84
2016-06-15T03:27:14.674Z,68.93
2016-06-15T03:28:14.473Z,68.93
2016-06-15T03:29:14.461Z,68.93
2016-06-15T03:30:14.464Z,68.84
2016-06-15T03:31:14.670Z,68.93
2016-06-15T03:32:14.673Z,68.93
2016-06-15T03:33:14.660Z,68.93
2016-06-15T03:34:14.664Z,68.93
2016-06-15T03:35:14.666Z,68.84
2016-06-15T03:36:14.545Z,68.93
2016-06-15T03:37:14.267Z,68.93
2016-06-15T03:38:14.458Z,68.93
2016-06-15T03:39:14.461Z,68.93
2016-06-15T03:40:14.448Z,68.84
2016-06-15T03:41:14.670Z,68.84
2016-06-15T03:42:14.454Z,68.84
2016-06-15T03:43:14.457Z,68.93
2016-06-15T03:44:14.507Z,68.93
2016-06-15T03:45:14.651Z,68.93
2016-06-15T03:46:14.450Z,68.93
2016-06-15T03:47:14.439Z,68.93
2016-06-15T03:48:14.644Z,69.22
2016-06-15T03:49:14.445Z,68.93
2016-06-15T03:50:14.244Z,68.93
2016-06-15T03:51:14.326Z,69.12
2016-06-15T03:52:14.234Z,68.93
2016-06-15T03:53:14.441Z,68.93
2016-06-15T03:54:14.646Z,68.93
2016-06-15T03:55:14.650Z,68.93
2016-06-15T03:56:14.231Z,68.93
2016-06-15T03:57:14.281Z,69.02
2016-06-15T03:58:14.645Z,68.93
2016-06-15T03:59:14.647Z,69.02
2016-06-15T04:00:14.431Z,69.22
2016-06-15T04:01:14.232Z,68.8
2016-06-15T04:02:14.640Z,69.02
2016-06-15T04:03:14.441Z,68.93
2016-06-15T04:04:14.443Z,69.41
2016-06-15T04:05:14.431Z,69.02
2016-06-15T04:06:14.778Z,69.22
2016-06-15T04:07:14.437Z,68.93
2016-06-15T04:08:14.643Z,68.93
2016-06-15T04:09:14.224Z,68.93
2016-06-15T04:10:14.634Z,69.18
2016-06-15T04:11:14.418Z,69.31
2016-06-15T04:12:14.218Z,69.22
2016-06-15T04:13:14.424Z,69.02
2016-06-15T04:14:14.630Z,69.22
2016-06-15T04:15:14.415Z,69.09
2016-06-15T04:16:14.620Z,69.22
2016-06-15T04:17:14.437Z,69.28
2016-06-15T04:18:14.627Z,68.99
2016-06-15T04:19:14.630Z,69.38
2016-06-15T04:20:14.415Z,69.02
2016-06-15T04:21:14.433Z,69.18
2016-06-15T04:22:14.421Z,69.18
2016-06-15T04:23:14.408Z,69.09
2016-06-15T04:24:14.412Z,69.18
2016-06-15T04:25:14.211Z,69.18
2016-06-15T04:26:14.621Z,69.28
2016-06-15T04:27:14.608Z,69.28
2016-06-15T04:28:14.408Z,69.28
2016-06-15T04:29:14.396Z,69.28
2016-06-15T04:30:14.618Z,69.18
2016-06-15T04:31:14.402Z,69.38
2016-06-15T04:32:14.202Z,69.18
2016-06-15T04:33:14.205Z,69.09
2016-06-15T04:34:14.411Z,69.18
2016-06-15T04:35:14.601Z,69.38
2016-06-15T04:36:14.526Z,69.18
2016-06-15T04:37:14.607Z,69.18
2016-06-15T04:38:14.204Z,68.99
2016-06-15T04:39:14.395Z,69.09
2016-06-15T04:40:14.195Z,69.38
2016-06-15T04:41:14.401Z,69.38
2016-06-15T04:42:14.388Z,69.18
2016-06-15T04:43:14.594Z,69.09
2016-06-15T04:44:14.597Z,69.09
2016-06-15T04:45:14.397Z,68.99
2016-06-15T04:46:14.417Z,69.09
2016-06-15T04:47:14.387Z,68.9
2016-06-15T04:48:14.594Z,69.18
2016-06-15T04:49:14.597Z,69.09
2016-06-15T04:50:14.585Z,69.09
2016-06-15T04:51:14.525Z,69.18
2016-06-15T04:52:14.169Z,69.18
2016-06-15T04:53:14.188Z,69.18
2016-06-15T04:54:14.581Z,69.18
2016-06-15T04:55:14.381Z,69.28
2016-06-15T04:56:14.384Z,69.28
2016-06-15T04:57:14.169Z,69.18
2016-06-15T04:58:14.374Z,69.18
2016-06-15T04:59:14.378Z,69.18
2016-06-15T05:00:14.162Z,69.28
2016-06-15T05:01:14.181Z,69.18
2016-06-15T05:02:14.372Z,69.18
2016-06-15T05:03:14.375Z,69.18
2016-06-15T05:04:14.378Z,69.28
2016-06-15T05:05:14.584Z,69.09
2016-06-15T05:06:14.806Z,69.28
2016-06-15T05:07:14.371Z,69.28
2016-06-15T05:08:14.578Z,69.09
2016-06-15T05:09:14.565Z,69.28
2016-06-15T05:10:14.569Z,69.28
2016-06-15T05:11:14.571Z,69.18
2016-06-15T05:12:14.559Z,69.28
2016-06-15T05:13:14.156Z,69.28
2016-06-15T05:14:14.362Z,69.28
2016-06-15T05:15:14.349Z,69.18
2016-06-15T05:16:14.352Z,69.18
2016-06-15T05:17:14.558Z,69.09
2016-06-15T05:18:14.140Z,69.18
2016-06-15T05:19:14.347Z,69.09
2016-06-15T05:20:14.349Z,69.09
2016-06-15T05:21:14.759Z,69.09
2016-06-15T05:22:14.339Z,68.9
2016-06-15T05:23:14.546Z,69.28
2016-06-15T05:24:14.142Z,69.18
2016-06-15T05:25:14.349Z,69.28
2016-06-15T05:26:14.539Z,69.09
2016-06-15T05:27:14.355Z,69.18
2016-06-15T05:28:14.546Z,68.99
2016-06-15T05:29:14.345Z,69.28
2016-06-15T05:30:14.552Z,69.18
2016-06-15T05:31:14.336Z,69.18
2016-06-15T05:32:14.542Z,68.99
2016-06-15T05:33:14.342Z,69.09
2016-06-15T05:34:14.329Z,69.28
2016-06-15T05:35:14.130Z,68.99
2016-06-15T05:36:14.366Z,69.18
2016-06-15T05:37:14.338Z,68.99
2016-06-15T05:38:14.326Z,69.18
2016-06-15T05:39:14.329Z,69.18
2016-06-15T05:40:14.535Z,69.18
2016-06-15T05:41:14.539Z,69.28
2016-06-15T05:42:14.526Z,68.99
2016-06-15T05:43:14.325Z,69.28
2016-06-15T05:44:14.173Z,69.28
2016-06-15T05:45:14.316Z,68.99
2016-06-15T05:46:14.523Z,68.9
2016-06-15T05:47:14.322Z,68.9
2016-06-15T05:48:14.326Z,69.18
2016-06-15T05:49:14.313Z,69.38
2016-06-15T05:50:14.519Z,69.18
2016-06-15T05:51:14.522Z,69.18
2016-06-15T05:52:14.510Z,69.18
2016-06-15T05:53:14.309Z,68.99
2016-06-15T05:54:14.313Z,68.99
2016-06-15T05:55:14.299Z,69.18
2016-06-15T05:56:14.100Z,68.7
2016-06-15T05:57:14.103Z,68.7
2016-06-15T05:58:14.309Z,68.7
2016-06-15T05:59:14.516Z,68.7
2016-06-15T06:00:14.503Z,68.51
2016-06-15T06:01:14.506Z,68.51
2016-06-15T06:02:14.510Z,68.9
2016-06-15T06:03:14.293Z,68.7
2016-06-15T06:04:14.297Z,68.8
2016-06-15T06:05:14.299Z,68.7
2016-06-15T06:06:14.099Z,68.7
2016-06-15T06:07:14.509Z,68.6
2016-06-15T06:08:14.309Z,68.51
2016-06-15T06:09:14.483Z,68.51
2016-06-15T06:10:14.487Z,68.7
2016-06-15T06:11:14.287Z,68.41
2016-06-15T06:12:14.290Z,68.6
2016-06-15T06:13:14.310Z,68.6
2016-06-15T06:14:14.124Z,68.6
2016-06-15T06:15:14.284Z,68.51
2016-06-15T06:16:14.286Z,68.51
2016-06-15T06:17:14.478Z,68.6
2016-06-15T06:18:14.277Z,68.6
2016-06-15T06:19:14.281Z,68.51
2016-06-15T06:20:14.487Z,68.51
2016-06-15T06:21:14.365Z,68.51
2016-06-15T06:22:14.071Z,68.51
2016-06-15T06:23:14.058Z,68.51
2016-06-15T06:24:14.468Z,68.41
2016-06-15T06:25:14.486Z,68.51
2016-06-15T06:26:14.255Z,68.51
2016-06-15T06:27:14.477Z,68.51
2016-06-15T06:28:14.511Z,68.41
2016-06-15T06:29:14.265Z,68.51
2016-06-15T06:30:14.454Z,68.7
2016-06-15T06:31:14.068Z,68.7
2016-06-15T06:32:14.257Z,68.7
2016-06-15T06:33:14.261Z,68.51
2016-06-15T06:34:14.045Z,68.51
2016-06-15T06:35:14.252Z,68.6
2016-06-15T06:36:14.255Z,68.51
2016-06-15T06:37:14.241Z,68.41
2016-06-15T06:38:14.245Z,68.6
2016-06-15T06:39:14.451Z,68.6
2016-06-15T06:40:14.048Z,68.51
2016-06-15T06:41:14.254Z,68.32
2016-06-15T06:42:14.444Z,68.51
2016-06-15T06:43:14.244Z,68.32
2016-06-15T06:44:16.622Z,68.6
2016-06-15T06:45:14.236Z,68.6
2016-06-15T06:46:14.253Z,68.7
2016-06-15T06:47:14.445Z,68.7
2016-06-15T06:48:14.228Z,68.32
2016-06-15T06:49:14.029Z,68.41
2016-06-15T06:50:14.438Z,68.6
2016-06-15T06:51:14.035Z,68.22
2016-06-15T06:52:14.022Z,68.7
2016-06-15T06:53:14.228Z,67.93
2016-06-15T06:54:14.435Z,68.41
2016-06-15T06:55:14.439Z,68.03
2016-06-15T06:56:14.019Z,68.32
2016-06-15T06:57:14.023Z,68.03
2016-06-15T06:58:14.025Z,68.03
2016-06-15T06:59:14.435Z,68.03
2016-06-15T07:00:14.422Z,68.22
2016-06-15T07:01:14.019Z,68.03
2016-06-15T07:02:14.428Z,68.13
2016-06-15T07:03:14.213Z,68.13
2016-06-15T07:04:14.216Z,68.22
2016-06-15T07:05:14.422Z,68.22
2016-06-15T07:06:14.237Z,68.13
2016-06-15T07:07:14.412Z,68.22
2016-06-15T07:08:14.431Z,68.13
2016-06-15T07:09:14.434Z,68.03
2016-06-15T07:10:14.405Z,68.13
2016-06-15T07:11:14.409Z,68.32
2016-06-15T07:12:14.411Z,68.13
2016-06-15T07:13:14.212Z,67.93
2016-06-15T07:14:14.199Z,67.93
2016-06-15T07:15:14.406Z,68.03
2016-06-15T07:16:14.190Z,68.13
2016-06-15T07:17:14.193Z,68.03
2016-06-15T07:18:14.399Z,68.22
2016-06-15T07:19:14.196Z,67.93
2016-06-15T07:20:14.199Z,68.22
2016-06-15T07:21:14.331Z,68.13
2016-06-15T07:22:14.190Z,68.22
2016-06-15T07:23:14.192Z,68.03
2016-06-15T07:24:14.180Z,68.03
2016-06-15T07:25:14.183Z,68.32
2016-06-15T07:26:14.390Z,68.22
2016-06-15T07:27:14.189Z,68.13
2016-06-15T07:28:14.380Z,68.03
2016-06-15T07:29:14.383Z,67.93
2016-06-15T07:30:14.183Z,67.65
2016-06-15T07:31:14.186Z,67.83
2016-06-15T07:32:13.970Z,67.93
2016-06-15T07:33:14.380Z,68.22
2016-06-15T07:34:14.180Z,67.55
2016-06-15T07:35:14.183Z,67.83
2016-06-15T07:36:14.014Z,67.93
2016-06-15T07:37:14.189Z,67.93
2016-06-15T07:38:14.379Z,67.83
2016-06-15T07:39:14.398Z,67.93
2016-06-15T07:40:14.166Z,67.83
2016-06-15T07:41:14.170Z,67.74
2016-06-15T07:42:14.158Z,67.83
2016-06-15T07:43:13.957Z,68.03
2016-06-15T07:44:14.164Z,68.03
2016-06-15T07:45:14.167Z,68.13
2016-06-15T07:46:13.967Z,67.83
2016-06-15T07:47:14.360Z,68.13
2016-06-15T07:48:14.160Z,67.83
2016-06-15T07:49:13.944Z,68.03
2016-06-15T07:50:14.150Z,68.03
2016-06-15T07:51:13.950Z,67.93
2016-06-15T07:52:14.656Z,68.13
2016-06-15T07:53:14.160Z,68.03
2016-06-15T07:54:14.147Z,68.03
2016-06-15T07:55:13.947Z,67.83
2016-06-15T07:56:14.138Z,68.03
2016-06-15T07:57:14.141Z,67.93
2016-06-15T07:58:14.144Z,67.83
2016-06-15T07:59:14.146Z,67.83
2016-06-15T08:00:14.338Z,67.93
2016-06-15T08:01:14.138Z,67.68
2016-06-15T08:02:14.141Z,67.55
2016-06-15T08:03:14.128Z,67.87
2016-06-15T08:04:13.928Z,67.55
2016-06-15T08:05:14.134Z,67.74
2016-06-15T08:06:14.340Z,67.55
2016-06-15T08:07:14.125Z,67.55
2016-06-15T08:08:14.127Z,67.58
2016-06-15T08:09:14.131Z,67.58
2016-06-15T08:10:14.337Z,67.29
2016-06-15T08:11:14.121Z,67.58
2016-06-15T08:12:14.125Z,67.29
2016-06-15T08:13:14.127Z,67.39
2016-06-15T08:14:14.131Z,67.29
2016-06-15T08:15:13.931Z,67.29
2016-06-15T08:16:14.137Z,67.1
2016-06-15T08:17:14.125Z,67.29
2016-06-15T08:18:13.908Z,67.19
2016-06-15T08:19:14.114Z,67.39
2016-06-15T08:20:14.321Z,67.29
2016-06-15T08:21:14.120Z,67.19
2016-06-15T08:22:16.142Z,67.39
2016-06-15T08:23:14.111Z,67.19
2016-06-15T08:24:14.240Z,67.49
2016-06-15T08:25:14.118Z,67.58
2016-06-15T08:26:14.308Z,67.68
2016-06-15T08:27:13.905Z,67.97
2016-06-15T08:28:14.111Z,67.87
2016-06-15T08:29:14.317Z,68.26
2016-06-15T08:30:14.320Z,67.19
2016-06-15T08:31:14.089Z,67.39
2016-06-15T08:32:14.092Z,67.29
2016-06-15T08:33:14.315Z,67.19
2016-06-15T08:34:14.317Z,67.39
2016-06-15T08:35:13.883Z,67.29
2016-06-15T08:36:14.308Z,67.19
2016-06-15T08:37:14.217Z,67.58
2016-06-15T08:38:14.298Z,67.49
2016-06-15T08:39:14.300Z,67.1
2016-06-15T08:40:14.086Z,67.19
2016-06-15T08:41:14.292Z,67.29
2016-06-15T08:42:14.092Z,67.39
2016-06-15T08:43:14.282Z,67.29
2016-06-15T08:44:13.879Z,67
2016-06-15T08:45:14.085Z,67.1
2016-06-15T08:46:14.292Z,67.1
2016-06-15T08:47:13.872Z,67.19
2016-06-15T08:48:14.079Z,67
2016-06-15T08:49:14.285Z,67.29
2016-06-15T08:50:14.084Z,66.91
2016-06-15T08:51:14.073Z,67.29
2016-06-15T08:52:14.856Z,67.39
2016-06-15T08:53:14.079Z,67.29
2016-06-15T08:54:14.065Z,67.29
2016-06-15T08:55:14.069Z,67.1
2016-06-15T08:56:14.072Z,67.19
2016-06-15T08:57:14.075Z,67.19
2016-06-15T08:58:14.063Z,67.29
2016-06-15T08:59:14.269Z,67.13
2016-06-15T09:00:22.009Z,67.03
2016-06-15T09:01:14.275Z,66.85
2016-06-15T09:02:14.122Z,66.94
2016-06-15T09:03:14.266Z,66.71
2016-06-15T09:04:14.066Z,66.94
2016-06-15T09:05:14.053Z,66.94
2016-06-15T09:06:14.056Z,66.75
2016-06-15T09:07:14.278Z,66.52
2016-06-15T09:08:14.062Z,66.71
2016-06-15T09:09:14.066Z,66.94
2016-06-15T09:10:14.053Z,66.94
2016-06-15T09:11:14.056Z,66.94
2016-06-15T09:12:14.044Z,66.94
2016-06-15T09:13:22.099Z,66.85
2016-06-15T09:14:14.231Z,66.36
2016-06-15T09:15:13.842Z,67.13
2016-06-15T09:16:14.049Z,67.03
2016-06-15T09:17:13.849Z,66.75
2016-06-15T09:18:14.087Z,66.75
2016-06-15T09:19:14.246Z,67.13
2016-06-15T09:20:14.046Z,66.94
2016-06-15T09:21:14.253Z,66.75
2016-06-15T09:22:14.630Z,66.55
2016-06-15T09:23:14.040Z,66.85
2016-06-15T09:24:14.245Z,66.27
2016-06-15T09:25:14.233Z,66.75
2016-06-15T09:26:14.048Z,66.55
2016-06-15T09:27:14.036Z,66.36
2016-06-15T09:28:13.836Z,67.03
2016-06-15T09:29:13.838Z,66.85
2016-06-15T09:30:14.243Z,66.85
2016-06-15T09:31:14.230Z,66.65
2016-06-15T09:32:14.031Z,66.75
2016-06-15T09:33:14.237Z,66.65
2016-06-15T09:34:14.020Z,66.55
2016-06-15T09:35:14.243Z,66.55
2016-06-15T09:36:14.246Z,66.46
2016-06-15T09:37:13.811Z,66.55
2016-06-15T09:38:14.220Z,66.85
2016-06-15T09:39:14.020Z,66.55
2016-06-15T09:40:14.024Z,66.55
2016-06-15T09:41:14.230Z,66.55
2016-06-15T09:42:13.827Z,66.55
2016-06-15T09:43:14.236Z,66.65
2016-06-15T09:44:14.020Z,66.65
2016-06-15T09:45:14.024Z,66.55
2016-06-15T09:46:14.214Z,66.55
2016-06-15T09:47:14.217Z,66.55
2016-06-15T09:48:14.220Z,66.55
2016-06-15T09:49:14.224Z,66.46
2016-06-15T09:50:14.022Z,66.65
2016-06-15T09:51:13.870Z,66.75
2016-06-15T09:52:13.811Z,66.65
2016-06-15T09:53:13.814Z,66.75
2016-06-15T09:54:14.206Z,66.55
2016-06-15T09:55:14.007Z,66.85
2016-06-15T09:56:13.995Z,67.13
2016-06-15T09:57:14.201Z,66.65
2016-06-15T09:58:14.001Z,66.94
2016-06-15T09:59:14.005Z,66.85
2016-06-15T10:00:13.803Z,66.94
2016-06-15T10:01:14.010Z,66.85
2016-06-15T10:02:13.794Z,66.55
2016-06-15T10:03:14.203Z,66.75
2016-06-15T10:04:14.022Z,66.75
2016-06-15T10:05:14.268Z,66.65
2016-06-15T10:06:13.889Z,66.75
2016-06-15T10:07:14.589Z,66.75
2016-06-15T10:08:14.381Z,66.85
2016-06-15T10:09:14.194Z,66.75
2016-06-15T10:10:14.071Z,66.85
2016-06-15T10:11:14.228Z,66.85
2016-06-15T10:12:14.043Z,67.33
2016-06-15T10:13:14.467Z,66.85
2016-06-15T10:14:14.480Z,66.94
2016-06-15T10:15:14.066Z,66.85
2016-06-15T10:16:29.168Z,66.85
2016-06-15T10:17:14.270Z,66.94
2016-06-15T10:18:23.232Z,66.85
2016-06-15T10:19:14.489Z,67.13
2016-06-15T10:20:14.494Z,67.03
2016-06-15T10:21:14.280Z,66.94
2016-06-15T10:22:14.863Z,67.23
2016-06-15T10:23:14.493Z,66.85
2016-06-15T10:24:14.278Z,67.03
2016-06-15T10:25:14.485Z,67.23
2016-06-15T10:26:14.286Z,66.85
2016-06-15T10:27:14.273Z,66.75
2016-06-15T10:28:14.089Z,67.03
2016-06-15T10:29:14.484Z,66.94
2016-06-15T10:30:14.284Z,66.94
2016-06-15T10:31:14.490Z,66.94
2016-06-15T10:32:14.478Z,66.85
2016-06-15T10:33:14.278Z,66.85
2016-06-15T10:34:14.485Z,66.88
2016-06-15T10:35:14.488Z,66.97
2016-06-15T10:36:14.507Z,67.13
2016-06-15T10:37:22.308Z,66.75
2016-06-15T10:38:23.294Z,66.94
2016-06-15T10:39:33.313Z,67.13
2016-06-15T10:40:37.426Z,67.13
2016-06-15T10:41:30.601Z,66.94
2016-06-15T10:42:33.385Z,66.97
2016-06-15T10:43:23.747Z,66.88
2016-06-15T10:44:23.875Z,67.33
2016-06-15T10:45:34.019Z,66.75
2016-06-15T10:46:29.586Z,66.75
2016-06-15T10:47:38.072Z,66.85
2016-06-15T10:49:07.278Z,66.75
2016-06-15T10:50:06.141Z,67.07
2016-06-15T10:51:06.660Z,66.85
2016-06-15T10:52:06.757Z,67.23
2016-06-15T10:53:41.310Z,66.85
2016-06-15T10:55:47.472Z,67.16
2016-06-15T10:56:20.287Z,66.97
2016-06-15T10:57:20.087Z,66.88
2016-06-15T10:58:20.106Z,66.88
2016-06-15T10:59:20.094Z,66.97
2016-06-15T11:00:19.879Z,66.97
2016-06-15T11:01:20.303Z,66.88
2016-06-15T11:02:20.291Z,66.88
2016-06-15T11:03:20.278Z,66.97
2016-06-15T11:04:20.297Z,66.78
2016-06-15T11:05:20.097Z,66.88
2016-06-15T11:06:19.882Z,66.97
2016-06-15T11:07:20.290Z,66.97
2016-06-15T11:08:20.278Z,66.69
2016-06-15T11:09:20.282Z,66.88
2016-06-15T11:10:20.080Z,66.97
2016-06-15T11:11:20.272Z,66.97
2016-06-15T11:12:20.087Z,66.78
2016-06-15T11:13:20.278Z,66.78
2016-06-15T11:14:20.077Z,66.97
2016-06-15T11:15:20.284Z,66.88
2016-06-15T11:16:19.881Z,66.88
2016-06-15T11:17:20.274Z,66.69
2016-06-15T11:18:20.278Z,66.97
2016-06-15T11:19:20.265Z,66.69
2016-06-15T11:20:20.066Z,67.16
2016-06-15T11:21:20.069Z,66.78
2016-06-15T11:22:20.586Z,66.88
2016-06-15T11:23:20.277Z,66.78
2016-06-15T11:24:20.062Z,66.78
2016-06-15T11:25:19.923Z,66.69
2016-06-15T11:26:20.271Z,66.78
2016-06-15T11:27:20.274Z,66.78
2016-06-15T11:28:20.057Z,66.78
2016-06-15T11:29:20.061Z,66.69
2016-06-15T11:30:20.267Z,66.59
2016-06-15T11:31:19.849Z,66.88
2016-06-15T11:32:20.258Z,66.88
2016-06-15T11:33:19.855Z,66.97
2016-06-15T11:34:20.061Z,67.07
2016-06-15T11:35:19.862Z,66.78
2016-06-15T11:36:19.849Z,66.88
2016-06-15T11:37:19.695Z,66.88
2016-06-15T11:38:19.854Z,66.78
2016-06-15T11:39:20.263Z,66.97
2016-06-15T11:40:19.688Z,66.97
2016-06-15T11:41:20.255Z,66.97
2016-06-15T11:42:19.851Z,66.97
2016-06-15T11:43:19.839Z,66.78
2016-06-15T11:44:20.045Z,66.97
2016-06-15T11:45:20.048Z,66.97
2016-06-15T11:46:20.052Z,66.88
2016-06-15T11:47:19.851Z,66.97
2016-06-15T11:48:20.057Z,66.88
2016-06-15T11:49:20.248Z,66.78
2016-06-15T11:50:19.844Z,66.88
2016-06-15T11:51:20.114Z,66.97
2016-06-15T11:52:20.070Z,66.78
2016-06-15T11:53:19.682Z,67.07
2016-06-15T11:54:20.045Z,66.78
2016-06-15T11:55:20.250Z,66.97
2016-06-15T11:56:19.847Z,66.97
2016-06-15T11:57:20.241Z,66.97
2016-06-15T11:58:20.244Z,66.88
2016-06-15T11:59:20.045Z,66.78
2016-06-15T12:00:20.047Z,66.78
2016-06-15T12:01:20.035Z,66.97
2016-06-15T12:02:20.038Z,66.59
2016-06-15T12:03:19.838Z,66.88
2016-06-15T12:04:19.685Z,66.97
2016-06-15T12:05:20.031Z,66.69
2016-06-15T12:06:20.035Z,67.07
2016-06-15T12:07:20.584Z,66.78
2016-06-15T12:08:19.822Z,66.97
2016-06-15T12:09:20.231Z,67.16
2016-06-15T12:10:20.031Z,66.49
2016-06-15T12:11:20.237Z,66.59
2016-06-15T12:12:19.881Z,66.49
2016-06-15T12:13:20.040Z,66.59
2016-06-15T12:14:20.028Z,66.49
2016-06-15T12:15:19.828Z,66.49
2016-06-15T12:16:20.018Z,66.69
2016-06-15T12:17:20.021Z,66.59
2016-06-15T12:18:19.665Z,66.59
2016-06-15T12:19:20.231Z,66.49
2016-06-15T12:20:20.015Z,66.59
2016-06-15T12:21:20.221Z,66.59
2016-06-15T12:22:20.020Z,66.49
2016-06-15T12:23:20.055Z,66.97
2016-06-15T12:24:19.808Z,66.2
2016-06-15T12:25:20.077Z,66.2
2016-06-15T12:26:20.033Z,66.69
2016-06-15T12:27:20.036Z,66.2
2016-06-15T12:28:20.227Z,66.39
2016-06-15T12:29:20.215Z,66.39
2016-06-15T12:30:20.218Z,67.16
2016-06-15T12:31:20.221Z,66.39
2016-06-15T12:32:19.817Z,66.39
2016-06-15T12:33:20.023Z,66.69
2016-06-15T12:34:20.011Z,66.39
2016-06-15T12:35:20.217Z,66.3
2016-06-15T12:36:20.219Z,66.3
2016-06-15T12:37:20.177Z,66.2
2016-06-15T12:38:20.226Z,66.78
2016-06-15T12:39:20.214Z,66.3
2016-06-15T12:40:20.030Z,66.3
2016-06-15T12:41:19.798Z,66.97
2016-06-15T12:42:20.004Z,66.2
2016-06-15T12:43:20.210Z,66.2
2016-06-15T12:44:20.011Z,66.2
2016-06-15T12:45:20.014Z,66.2
2016-06-15T12:46:20.017Z,66.24
2016-06-15T12:47:20.067Z,66.2
2016-06-15T12:48:20.210Z,66.24
2016-06-15T12:49:20.214Z,66.39
2016-06-15T12:50:20.217Z,66.69
2016-06-15T12:51:20.220Z,66.3
2016-06-15T12:52:20.019Z,66.59
2016-06-15T12:53:20.210Z,66.49
2016-06-15T12:54:20.011Z,66.69
2016-06-15T12:55:20.200Z,66.49
2016-06-15T12:56:20.203Z,66.69